createdAt,value
2023-01-11T00:01:56.978Z,96766.84
2023-01-11T00:04:30.251Z,96758.88
2023-01-11T00:06:57.854Z,96762.34
2023-01-11T00:09:24.616Z,96763.09
2023-01-11T00:11:51.257Z,96764.00
2023-01-11T00:14:17.830Z,96771.78
2023-01-11T00:16:44.470Z,96760.31
2023-01-11T00:19:11.140Z,96765.38
2023-01-11T00:21:37.768Z,96760.00
2023-01-11T00:24:04.550Z,96755.59
2023-01-11T00:26:31.145Z,96758.66
2023-01-11T00:28:57.770Z,96749.81
2023-01-11T00:31:24.476Z,96754.19
2023-01-11T00:33:51.162Z,96750.59
2023-01-11T00:36:17.713Z,96757.50
2023-01-11T00:38:44.298Z,96752.94
2023-01-11T00:41:31.011Z,96745.84
2023-01-11T00:44:16.311Z,96742.41
2023-01-11T00:47:02.261Z,96746.63
2023-01-11T00:49:29.096Z,96733.38
2023-01-11T00:51:55.888Z,96727.06
2023-01-11T00:54:22.458Z,96725.97
2023-01-11T00:56:49.147Z,96732.81
2023-01-11T00:59:15.726Z,96731.53
2023-01-11T01:01:42.381Z,96734.91
2023-01-11T01:04:08.974Z,96728.75
2023-01-11T01:06:35.597Z,96735.66
2023-01-11T01:09:02.229Z,96735.59
2023-01-11T01:11:28.821Z,96731.88
2023-01-11T01:14:13.837Z,96727.50
2023-01-11T01:16:42.424Z,96725.63
2023-01-11T01:19:09.459Z,96728.19
2023-01-11T01:21:37.418Z,96725.38
2023-01-11T01:24:04.397Z,96709.59
2023-01-11T01:26:31.045Z,96710.44
2023-01-11T01:28:57.631Z,96724.38
2023-01-11T01:31:24.257Z,96713.75
2023-01-11T01:33:50.850Z,96726.03
2023-01-11T01:36:17.441Z,96717.88
2023-01-11T01:38:43.997Z,96720.38
2023-01-11T01:41:12.445Z,96719.38
2023-01-11T01:43:52.589Z,96721.09
2023-01-11T01:46:21.395Z,96723.50
2023-01-11T01:48:55.415Z,96719.03
2023-01-11T01:51:28.470Z,96721.56
2023-01-11T01:53:58.443Z,96716.25
2023-01-11T01:56:40.465Z,96720.56
2023-01-11T01:59:12.937Z,96712.72
2023-01-11T02:01:49.959Z,96706.53
2023-01-11T02:04:28.580Z,96708.13
2023-01-11T02:06:59.599Z,96709.72
2023-01-11T02:09:38.920Z,96707.06
2023-01-11T02:12:07.867Z,96699.03
2023-01-11T02:14:37.248Z,96701.75
2023-01-11T02:17:04.113Z,96695.47
2023-01-11T02:19:55.206Z,96697.06
2023-01-11T02:22:33.515Z,96684.81
2023-01-11T02:25:12.779Z,96689.81
2023-01-11T02:28:01.312Z,96690.75
2023-01-11T02:30:46.870Z,96683.53
2023-01-11T02:33:25.385Z,96680.78
2023-01-11T02:36:01.078Z,96667.69
2023-01-11T02:38:35.379Z,96672.63
2023-01-11T02:41:17.602Z,96664.78
2023-01-11T02:44:07.676Z,96652.44
2023-01-11T02:46:45.858Z,96655.44
2023-01-11T02:49:32.033Z,96657.81
2023-01-11T02:52:13.881Z,96651.63
2023-01-11T02:54:45.403Z,96651.34
2023-01-11T02:57:13.741Z,96646.09
2023-01-11T02:59:41.961Z,96639.84
2023-01-11T03:02:08.639Z,96638.06
2023-01-11T03:04:37.255Z,96639.56
2023-01-11T03:07:39.398Z,96639.19
2023-01-11T03:10:11.609Z,96640.13
2023-01-11T03:12:54.899Z,96640.88
2023-01-11T03:15:42.355Z,96625.66
2023-01-11T03:18:08.864Z,96622.19
2023-01-11T03:20:40.943Z,96625.34
2023-01-11T03:23:57.393Z,96624.25
2023-01-11T03:26:44.138Z,96617.22
2023-01-11T03:29:19.531Z,96612.91
2023-01-11T03:31:52.263Z,96610.31
2023-01-11T03:34:38.155Z,96606.06
2023-01-11T03:37:12.449Z,96599.72
2023-01-11T03:39:52.245Z,96600.66
2023-01-11T03:42:22.423Z,96599.72
2023-01-11T03:44:55.402Z,96601.28
2023-01-11T03:47:25.093Z,96606.53
2023-01-11T03:50:12.378Z,96603.75
2023-01-11T03:52:42.584Z,96604.50
2023-01-11T03:55:12.192Z,96599.16
2023-01-11T03:57:51.403Z,96603.44
2023-01-11T04:00:20.577Z,96601.56
2023-01-11T04:02:47.489Z,96607.56
2023-01-11T04:05:14.144Z,96599.41
2023-01-11T04:07:40.763Z,96598.78
2023-01-11T04:10:08.515Z,96594.28
2023-01-11T04:12:35.098Z,96602.03
2023-01-11T04:15:03.245Z,96578.81
2023-01-11T04:17:29.845Z,96586.56
2023-01-11T04:19:56.439Z,96577.97
2023-01-11T04:22:23.088Z,96575.25
2023-01-11T04:24:49.694Z,96571.69
2023-01-11T04:27:16.295Z,96567.94
2023-01-11T04:29:42.834Z,96562.28
2023-01-11T04:32:09.410Z,96556.75
2023-01-11T04:34:37.161Z,96546.81
2023-01-11T04:37:03.750Z,96558.69
2023-01-11T04:39:30.311Z,96557.75
2023-01-11T04:42:15.372Z,96550.94
2023-01-11T04:44:41.962Z,96547.00
2023-01-11T04:47:08.567Z,96545.41
2023-01-11T04:49:35.158Z,96554.97
2023-01-11T04:52:01.762Z,96553.91
2023-01-11T04:54:28.331Z,96552.59
2023-01-11T04:56:54.897Z,96557.19
2023-01-11T04:59:21.446Z,96558.03
2023-01-11T05:01:48.259Z,96547.34
2023-01-11T05:04:14.891Z,96558.88
2023-01-11T05:06:41.593Z,96548.50
2023-01-11T05:09:13.554Z,96550.63
2023-01-11T05:11:40.260Z,96541.81
2023-01-11T05:14:06.974Z,96545.44
2023-01-11T05:16:33.758Z,96541.13
2023-01-11T05:19:01.790Z,96538.22
2023-01-11T05:21:31.679Z,96539.91
2023-01-11T05:23:59.595Z,96530.97
2023-01-11T05:26:29.302Z,96534.25
2023-01-11T05:28:58.687Z,96531.09
2023-01-11T05:31:25.662Z,96539.06
2023-01-11T05:33:52.988Z,96532.03
2023-01-11T05:36:21.477Z,96529.97
2023-01-11T05:38:50.032Z,96528.34
2023-01-11T05:41:18.240Z,96531.63
2023-01-11T05:44:05.065Z,96524.50
2023-01-11T05:46:33.142Z,96526.16
2023-01-11T05:49:00.309Z,96531.41
2023-01-11T05:51:30.704Z,96518.84
2023-01-11T05:53:57.670Z,96522.81
2023-01-11T05:56:24.710Z,96513.50
2023-01-11T05:58:51.914Z,96512.13
2023-01-11T06:01:19.967Z,96507.06
2023-01-11T06:03:46.857Z,96510.25
2023-01-11T06:06:14.674Z,96501.00
2023-01-11T06:08:41.325Z,96503.00
2023-01-11T06:11:07.948Z,96500.78
2023-01-11T06:13:34.631Z,96495.75
2023-01-11T06:16:06.324Z,96488.06
2023-01-11T06:18:44.015Z,96498.28
2023-01-11T06:21:11.516Z,96485.47
2023-01-11T06:23:40.728Z,96487.03
2023-01-11T06:26:10.051Z,96482.84
2023-01-11T06:28:37.045Z,96481.91
2023-01-11T06:31:04.726Z,96492.19
2023-01-11T06:33:31.730Z,96485.56
2023-01-11T06:35:59.090Z,96487.97
2023-01-11T06:38:26.532Z,96494.91
2023-01-11T06:40:58.727Z,96485.03
2023-01-11T06:43:26.526Z,96483.88
2023-01-11T06:45:53.507Z,96485.44
2023-01-11T06:48:21.661Z,96488.81
2023-01-11T06:50:49.904Z,96478.09
2023-01-11T06:53:16.851Z,96479.56
2023-01-11T06:55:44.073Z,96478.72
2023-01-11T06:58:11.151Z,96485.47
2023-01-11T07:00:38.215Z,96489.66
2023-01-11T07:03:06.457Z,96490.91
2023-01-11T07:05:34.759Z,96496.16
2023-01-11T07:08:01.807Z,96494.47
2023-01-11T07:10:28.751Z,96487.44
2023-01-11T07:12:55.437Z,96486.59
2023-01-11T07:15:22.517Z,96491.97
2023-01-11T07:17:54.993Z,96489.44
2023-01-11T07:20:23.167Z,96493.03
2023-01-11T07:22:50.179Z,96493.44
2023-01-11T07:25:17.837Z,96490.94
2023-01-11T07:27:44.660Z,96492.72
2023-01-11T07:30:11.743Z,96486.50
2023-01-11T07:32:38.531Z,96495.00
2023-01-11T07:35:05.599Z,96500.38
2023-01-11T07:37:32.772Z,96499.53
2023-01-11T07:39:59.438Z,96505.13
2023-01-11T07:42:44.853Z,96498.91
2023-01-11T07:45:11.626Z,96499.88
2023-01-11T07:47:38.193Z,96494.81
2023-01-11T07:50:05.342Z,96495.13
2023-01-11T07:52:31.946Z,96495.97
2023-01-11T07:55:02.501Z,96499.63
2023-01-11T07:57:30.341Z,96488.19
2023-01-11T07:59:57.057Z,96497.97
2023-01-11T08:02:24.026Z,96492.91
2023-01-11T08:04:50.761Z,96498.50
2023-01-11T08:07:17.343Z,96504.56
2023-01-11T08:09:44.015Z,96494.38
2023-01-11T08:12:29.202Z,96498.81
2023-01-11T08:14:55.793Z,96506.03
2023-01-11T08:17:22.392Z,96504.34
2023-01-11T08:19:48.977Z,96506.03
2023-01-11T08:22:17.429Z,96499.03
2023-01-11T08:24:44.324Z,96493.78
2023-01-11T08:27:11.023Z,96500.88
2023-01-11T08:29:38.083Z,96510.03
2023-01-11T08:32:04.917Z,96509.94
2023-01-11T08:34:33.616Z,96516.84
2023-01-11T08:37:02.061Z,96517.81
2023-01-11T08:39:31.803Z,96513.72
2023-01-11T08:41:59.384Z,96517.63
2023-01-11T08:44:33.837Z,96517.38
2023-01-11T08:47:01.011Z,96520.97
2023-01-11T08:49:27.558Z,96514.53
2023-01-11T08:51:54.132Z,96523.19
2023-01-11T08:54:20.692Z,96521.28
2023-01-11T08:56:47.276Z,96514.13
2023-01-11T08:59:13.917Z,96526.13
2023-01-11T09:01:40.543Z,96528.09
2023-01-11T09:04:23.095Z,96525.47
2023-01-11T09:06:51.448Z,96532.09
2023-01-11T09:09:18.089Z,96537.56
2023-01-11T09:11:57.369Z,96548.16
2023-01-11T09:14:26.113Z,96548.28
2023-01-11T09:16:54.153Z,96553.56
2023-01-11T09:19:21.325Z,96558.63
2023-01-11T09:21:48.150Z,96562.69
2023-01-11T09:24:14.982Z,96571.22
2023-01-11T09:26:43.540Z,96583.63
2023-01-11T09:29:11.768Z,96585.94
2023-01-11T09:31:38.782Z,96579.63
2023-01-11T09:34:06.985Z,96602.22
2023-01-11T09:36:36.186Z,96608.31
2023-01-11T09:39:07.584Z,96620.00
2023-01-11T09:42:16.579Z,96626.31
2023-01-11T09:44:51.616Z,96639.88
2023-01-11T09:47:27.252Z,96621.16
2023-01-11T09:49:58.283Z,96627.69
2023-01-11T09:52:41.011Z,96632.59
2023-01-11T09:55:25.095Z,96631.13
2023-01-11T09:58:03.105Z,96627.44
2023-01-11T10:00:44.403Z,96619.03
2023-01-11T10:03:35.938Z,96608.50
2023-01-11T10:06:15.050Z,96607.44
2023-01-11T10:18:23.666Z,96588.88
2023-01-11T10:18:53.802Z,96594.59
2023-01-11T10:21:31.737Z,96586.31
2023-01-11T10:24:18.881Z,96586.69
2023-01-11T10:26:46.250Z,96585.88
2023-01-11T10:29:21.549Z,96585.81
2023-01-11T10:32:13.730Z,96596.53
2023-01-11T10:35:08.003Z,96603.38
2023-01-11T10:37:54.559Z,96600.41
2023-01-11T10:40:30.446Z,96611.34
2023-01-11T10:43:03.800Z,96611.25
2023-01-11T10:45:39.833Z,96614.41
2023-01-11T10:48:15.758Z,96618.03
2023-01-11T10:51:05.167Z,96619.16
2023-01-11T10:53:41.040Z,96621.66
2023-01-11T10:56:30.329Z,96625.66
2023-01-11T10:59:07.408Z,96619.84
2023-01-11T11:01:38.818Z,96618.03
2023-01-11T11:04:28.673Z,96632.34
2023-01-11T11:07:17.891Z,96629.03
2023-01-11T11:10:03.343Z,96628.25
2023-01-11T11:12:38.791Z,96613.28
2023-01-11T11:15:17.235Z,96614.00
2023-01-11T11:17:50.193Z,96613.13
2023-01-11T11:20:20.604Z,96622.56
2023-01-11T11:22:52.045Z,96633.09
2023-01-11T11:25:27.469Z,96635.72
2023-01-11T11:28:02.896Z,96637.09
2023-01-11T11:30:34.940Z,96637.25
2023-01-11T11:33:03.763Z,96630.72
2023-01-11T11:35:31.150Z,96643.09
2023-01-11T11:37:57.914Z,96657.38
2023-01-11T11:40:32.226Z,96664.84
2023-01-11T11:43:19.055Z,96661.97
2023-01-11T11:46:04.592Z,96663.25
2023-01-11T11:48:34.113Z,96652.25
2023-01-11T11:51:06.564Z,96665.25
2023-01-11T11:53:43.559Z,96667.31
2023-01-11T11:56:28.821Z,96667.38
2023-01-11T11:58:57.881Z,96665.63
2023-01-11T12:01:31.529Z,96657.25
2023-01-11T12:04:05.118Z,96660.50
2023-01-11T12:06:31.754Z,96656.03
2023-01-11T12:09:02.521Z,96665.22
2023-01-11T12:11:35.492Z,96666.41
2023-01-11T12:14:10.961Z,96658.84
2023-01-11T12:16:42.848Z,96645.94
2023-01-11T12:19:29.982Z,96646.56
2023-01-11T12:22:22.959Z,96650.38
2023-01-11T12:25:21.633Z,96652.53
2023-01-11T12:28:07.426Z,96654.19
2023-01-11T12:30:49.967Z,96654.19
2023-01-11T12:33:22.340Z,96653.63
2023-01-11T12:36:01.291Z,96651.72
2023-01-11T12:39:02.770Z,96652.28
2023-01-11T12:41:56.151Z,96657.06
2023-01-11T12:44:37.694Z,96666.09
2023-01-11T12:47:23.469Z,96691.41
2023-01-11T12:50:25.032Z,96689.97
2023-01-11T12:52:55.653Z,96675.97
2023-01-11T12:55:44.831Z,96672.75
2023-01-11T12:58:40.147Z,96680.28
2023-01-11T13:01:24.214Z,96681.44
2023-01-11T13:04:20.279Z,96670.59
2023-01-11T13:07:08.887Z,96683.34
2023-01-11T13:10:06.202Z,96688.41
2023-01-11T13:12:46.008Z,96693.69
2023-01-11T13:15:12.561Z,96690.44
2023-01-11T13:17:51.444Z,96700.97
2023-01-11T13:20:30.898Z,96701.41
2023-01-11T13:23:09.373Z,96708.00
2023-01-11T13:25:41.175Z,96716.63
2023-01-11T13:28:37.761Z,96719.06
2023-01-11T13:31:07.707Z,96720.41
2023-01-11T13:33:40.337Z,96724.84
2023-01-11T13:36:22.570Z,96727.78
2023-01-11T13:39:07.173Z,96721.69
2023-01-11T13:41:43.193Z,96721.16
2023-01-11T13:44:09.755Z,96721.75
2023-01-11T13:47:00.086Z,96715.56
2023-01-11T13:49:38.589Z,96729.53
2023-01-11T13:52:13.455Z,96720.94
2023-01-11T13:54:50.761Z,96734.56
2023-01-11T13:57:26.055Z,96739.22
2023-01-11T13:59:57.742Z,96742.94
2023-01-11T14:02:39.215Z,96746.91
2023-01-11T14:05:14.348Z,96766.13
2023-01-11T14:08:01.065Z,96767.63
2023-01-11T14:11:13.599Z,96772.53
2023-01-11T14:14:06.859Z,96771.25
2023-01-11T14:16:56.008Z,96781.97
2023-01-11T14:19:26.377Z,96780.81
2023-01-11T14:21:59.933Z,96781.22
2023-01-11T14:24:29.514Z,96795.78
2023-01-11T14:27:05.235Z,96801.19
2023-01-11T14:29:55.387Z,96811.03
2023-01-11T14:32:39.723Z,96813.50
2023-01-11T14:35:45.005Z,96815.94
2023-01-11T14:38:36.011Z,96814.47
2023-01-11T14:41:07.433Z,96820.44
2023-01-11T14:44:11.308Z,96825.78
2023-01-11T14:46:55.910Z,96831.56
2023-01-11T14:49:41.978Z,96830.34
2023-01-11T14:52:17.532Z,96830.72
2023-01-11T14:54:48.014Z,96835.38
2023-01-11T14:57:52.315Z,96844.09
2023-01-11T15:00:18.875Z,96837.53
2023-01-11T15:02:46.688Z,96845.72
2023-01-11T15:05:31.670Z,96854.63
2023-01-11T15:08:13.234Z,96854.34
2023-01-11T15:10:39.887Z,96860.72
2023-01-11T15:13:13.043Z,96861.94
2023-01-11T15:15:58.767Z,96863.25
2023-01-11T15:18:27.234Z,96858.75
2023-01-11T15:21:06.622Z,96878.81
2023-01-11T15:23:46.221Z,96875.44
2023-01-11T15:26:19.957Z,96883.31
2023-01-11T15:28:55.415Z,96886.22
2023-01-11T15:31:48.472Z,96884.44
2023-01-11T15:34:22.612Z,96898.75
2023-01-11T15:37:27.872Z,96899.41
2023-01-11T15:40:11.393Z,96894.00
2023-01-11T15:42:52.847Z,96901.47
2023-01-11T15:45:28.164Z,96897.91
2023-01-11T15:48:25.305Z,96903.25
2023-01-11T15:51:07.597Z,96893.97
2023-01-11T15:53:50.637Z,96892.63
2023-01-11T15:56:55.168Z,96897.72
2023-01-11T15:59:43.341Z,96903.72
2023-01-11T16:02:12.878Z,96911.94
2023-01-11T16:04:58.944Z,96908.91
2023-01-11T16:07:33.513Z,96904.78
2023-01-11T16:10:09.943Z,96896.63
2023-01-11T16:13:15.325Z,96899.09
2023-01-11T16:16:03.223Z,96894.19
2023-01-11T16:18:37.612Z,96900.69
2023-01-11T16:21:14.415Z,96910.41
2023-01-11T16:23:41.654Z,96918.28
2023-01-11T16:26:08.670Z,96920.81
2023-01-11T16:28:35.486Z,96927.59
2023-01-11T16:31:04.827Z,96922.16
2023-01-11T16:33:33.554Z,96921.72
2023-01-11T16:36:11.085Z,96932.69
2023-01-11T16:38:48.651Z,96930.00
2023-01-11T16:41:16.661Z,96932.97
2023-01-11T16:43:52.823Z,96941.09
2023-01-11T16:46:41.350Z,96941.09
2023-01-11T16:49:11.450Z,96946.16
2023-01-11T16:51:38.031Z,96950.97
2023-01-11T16:54:04.935Z,96954.53
2023-01-11T16:56:31.813Z,96957.41
2023-01-11T16:59:06.343Z,96963.69
2023-01-11T17:01:54.461Z,96956.59
2023-01-11T17:04:31.838Z,96969.97
2023-01-11T17:07:28.635Z,96966.50
2023-01-11T17:10:28.792Z,96975.56
2023-01-11T17:13:44.227Z,96969.06
2023-01-11T17:16:15.029Z,96976.31
2023-01-11T17:18:43.053Z,96983.41
2023-01-11T17:21:29.940Z,96987.09
2023-01-11T17:24:02.578Z,96991.69
2023-01-11T17:26:33.509Z,96995.75
2023-01-11T17:29:00.619Z,96998.59
2023-01-11T17:31:32.296Z,97011.69
2023-01-11T17:34:17.677Z,97013.47
2023-01-11T17:36:45.783Z,97018.09
2023-01-11T17:39:22.886Z,97026.41
2023-01-11T17:42:22.514Z,97030.78
2023-01-11T17:45:10.053Z,97028.88
2023-01-11T17:47:39.643Z,97037.09
2023-01-11T17:50:17.520Z,97052.41
2023-01-11T17:52:54.540Z,97057.47
2023-01-11T17:55:27.074Z,97057.28
2023-01-11T17:58:26.272Z,97052.88
2023-01-11T18:01:05.013Z,97069.19
2023-01-11T18:03:41.100Z,97069.38
2023-01-11T18:06:42.211Z,97076.38
2023-01-11T18:09:23.183Z,97069.16
2023-01-11T18:11:51.543Z,97080.47
2023-01-11T18:14:25.322Z,97076.41
2023-01-11T18:17:35.143Z,97071.94
2023-01-11T18:20:23.041Z,97063.31
2023-01-11T18:23:07.751Z,97073.41
2023-01-11T18:25:35.171Z,97074.91
2023-01-11T18:28:26.897Z,97076.53
2023-01-11T18:30:57.686Z,97073.91
2023-01-11T18:33:28.072Z,97069.28
2023-01-11T18:36:00.390Z,97067.22
2023-01-11T18:38:35.252Z,97070.34
2023-01-11T18:41:26.416Z,97073.88
2023-01-11T18:43:54.090Z,97068.88
2023-01-11T18:46:20.899Z,97064.97
2023-01-11T18:48:47.731Z,97066.38
2023-01-11T18:51:41.581Z,97077.38
2023-01-11T18:54:16.172Z,97064.41
2023-01-11T18:56:42.757Z,97070.19
2023-01-11T18:59:09.359Z,97068.50
2023-01-11T19:01:52.640Z,97065.88
2023-01-11T19:04:24.003Z,97058.88
2023-01-11T19:06:52.363Z,97057.84
2023-01-11T19:09:19.039Z,97050.16
2023-01-11T19:11:45.637Z,97051.28
2023-01-11T19:14:12.329Z,97050.88
2023-01-11T19:16:38.893Z,97060.00
2023-01-11T19:19:05.494Z,97065.81
2023-01-11T19:21:32.245Z,97068.41
2023-01-11T19:23:58.858Z,97075.22
2023-01-11T19:26:27.687Z,97071.13
2023-01-11T19:28:54.234Z,97071.28
2023-01-11T19:31:20.869Z,97081.81
2023-01-11T19:33:47.752Z,97092.59
2023-01-11T19:36:14.396Z,97088.97
2023-01-11T19:38:40.994Z,97090.66
2023-01-11T19:41:10.157Z,97088.34
2023-01-11T19:43:36.999Z,97076.56
2023-01-11T19:46:04.102Z,97076.19
2023-01-11T19:48:34.852Z,97080.31
2023-01-11T19:51:02.831Z,97082.25
2023-01-11T19:53:30.882Z,97077.94
2023-01-11T19:56:15.417Z,97079.72
2023-01-11T19:58:41.978Z,97072.81
2023-01-11T20:01:10.958Z,97078.78
2023-01-11T20:03:40.668Z,97079.72
2023-01-11T20:06:08.327Z,97076.53
2023-01-11T20:08:38.518Z,97070.97
2023-01-11T20:11:10.784Z,97068.19
2023-01-11T20:13:37.848Z,97068.97
2023-01-11T20:16:06.228Z,97065.25
2023-01-11T20:18:33.568Z,97062.31
2023-01-11T20:21:00.478Z,97056.75
2023-01-11T20:23:29.375Z,97056.06
2023-01-11T20:26:04.482Z,97048.69
2023-01-11T20:28:32.132Z,97046.16
2023-01-11T20:31:01.937Z,97041.53
2023-01-11T20:33:28.754Z,97043.81
2023-01-11T20:35:55.348Z,97053.03
2023-01-11T20:38:21.899Z,97048.59
2023-01-11T20:40:48.499Z,97052.19
2023-01-11T20:43:15.104Z,97056.28
2023-01-11T20:45:41.699Z,97058.56
2023-01-11T20:48:08.281Z,97048.53
2023-01-11T20:50:37.246Z,97058.06
2023-01-11T20:53:03.941Z,97047.66
2023-01-11T20:55:30.621Z,97045.13
2023-01-11T20:57:58.470Z,97040.81
2023-01-11T21:00:25.342Z,97048.09
2023-01-11T21:02:51.979Z,97042.69
2023-01-11T21:05:18.690Z,97031.72
2023-01-11T21:07:45.327Z,97026.88
2023-01-11T21:10:11.884Z,97024.44
2023-01-11T21:12:41.236Z,97023.50
2023-01-11T21:15:10.678Z,97025.63
2023-01-11T21:17:37.819Z,97023.31
2023-01-11T21:20:05.243Z,97020.47
2023-01-11T21:22:31.825Z,97026.28
2023-01-11T21:24:58.439Z,97017.34
2023-01-11T21:27:25.137Z,97017.47
2023-01-11T21:29:51.808Z,97029.06
2023-01-11T21:32:18.434Z,97020.88
2023-01-11T21:34:45.083Z,97013.25
2023-01-11T21:37:11.747Z,97021.13
2023-01-11T21:39:38.329Z,97008.28
2023-01-11T21:42:05.054Z,97003.78
2023-01-11T21:44:33.921Z,96999.31
2023-01-11T21:47:02.186Z,96991.03
2023-01-11T21:49:28.811Z,97008.09
2023-01-11T21:51:55.423Z,97022.97
2023-01-11T21:54:21.994Z,97015.38
2023-01-11T21:56:49.936Z,97030.94
2023-01-11T21:59:18.107Z,97018.16
2023-01-11T22:01:45.625Z,97031.78
2023-01-11T22:04:14.424Z,97034.97
2023-01-11T22:06:43.502Z,97012.31
2023-01-11T22:09:11.940Z,97017.00
2023-01-11T22:11:39.304Z,97021.31
2023-01-11T22:14:06.700Z,97023.66
2023-01-11T22:16:33.510Z,97027.22
2023-01-11T22:19:01.250Z,97014.28
2023-01-11T22:21:27.965Z,97022.22
2023-01-11T22:23:56.800Z,97017.56
2023-01-11T22:26:24.327Z,97025.63
2023-01-11T22:29:15.298Z,97027.13
2023-01-11T22:31:51.435Z,97031.44
2023-01-11T22:34:18.964Z,97033.13
2023-01-11T22:36:46.282Z,97011.31
2023-01-11T22:39:15.010Z,96998.63
2023-01-11T22:41:42.382Z,96996.00
2023-01-11T22:44:09.484Z,96997.78
2023-01-11T22:46:36.319Z,96997.97
2023-01-11T22:49:03.567Z,96990.19
2023-01-11T22:51:30.155Z,96979.53
2023-01-11T22:53:56.838Z,96983.06
2023-01-11T22:56:26.246Z,96978.25
2023-01-11T22:58:53.897Z,96978.44
2023-01-11T23:01:26.430Z,96976.28
2023-01-11T23:03:55.033Z,96974.09
2023-01-11T23:06:24.679Z,96971.56
2023-01-11T23:08:51.858Z,96977.66
2023-01-11T23:11:39.381Z,96973.53
2023-01-11T23:14:12.794Z,96968.28
2023-01-11T23:16:39.919Z,96957.53
2023-01-11T23:19:07.735Z,96959.66
2023-01-11T23:21:35.130Z,96970.16
2023-01-11T23:24:02.273Z,96956.34
2023-01-11T23:26:29.641Z,96957.53
2023-01-11T23:28:56.685Z,96949.84
2023-01-11T23:31:25.816Z,96955.84
2023-01-11T23:33:54.585Z,96948.38
2023-01-11T23:36:23.205Z,96941.03
2023-01-11T23:38:50.872Z,96962.94
2023-01-11T23:41:38.657Z,96946.59
2023-01-11T23:44:09.556Z,96947.34
2023-01-11T23:46:55.982Z,96935.19
2023-01-11T23:49:24.681Z,96926.56
2023-01-11T23:51:52.087Z,96944.81
2023-01-11T23:54:18.927Z,96932.31
2023-01-11T23:56:45.588Z,96929.19
2023-01-11T23:59:12.168Z,96920.69
